ROMMA est une association bénévole à but non lucratif. Votre soutien est indispensable : ADHERER à ROMMA ou FAIRE un DON

Le Versoud - (38, Isère)

Vallée du Grésivaudan (220 m)   Longitude: 05° 51' 44" E   Latitude: 45° 13' 06" N Station partenaire n°6
 

Détail journalier du     <<     >>

Température Humidité Pression Vent Dir Rafale Dir. rafale Ensol.
Heure (°C) (%) (hPa) (km/h) (km/h) (min)
01:00 19.289101200---0
02:00 18.791101200---0
03:00 18.590101200---0
04:00 18.187101200---0
05:00 17.384101200---0
06:00 16.784101300---0
07:00 16.484101300---0
08:00 18.873101300---50
09:00 20.164101306NNO60
10:00 20.86010141ENE16N60
11:00 21.75910143NE21NE60
12:00 23.25610133NE21NE60
13:00 24.15210132N19NE60
14:00 25.35010133NE19NE60
15:00 26.44510135N23NNE60
16:00 27.24110126NE23NE60
17:00 28.33710125N23NNE60
18:00 28.73810125N19N60
19:00 28.13810127NE27ENE60
20:00 27.74110124NE23NE60
21:00 24.951101305N25
22:00 22.859101300---0
23:00 21.067101300---0
minuit 19.774101400---0

Graphique du 10-07-2019

 

Serveur OMMA